Time;durP1;ratioP1;P1;durP2;ratioP2;P2;SDS_P1;SDS_P2;PMS_P1;PMS_P2;Temp;Humidity;BMP_temperature;BMP_pressure;BME280_temperature;BME280_humidity;BME280_pressure;Samples;Min_cycle;Max_cycle;Signal;HPM_P1;HPM_P2
2022/06/12 00:00:38;;;;;;;10.40;2.63;;;;;;;13.86;69.39;102230.88;4752172;30;20599;-77
2022/06/12 00:03:07;;;;;;;8.38;2.47;;;;;;;13.77;68.29;102215.03;4751910;30;20053;-77
2022/06/12 00:05:36;;;;;;;5.90;2.30;;;;;;;13.76;67.49;102218.59;4767961;30;20051;-77
2022/06/12 00:08:03;;;;;;;5.97;1.98;;;;;;;13.69;68.67;102225.78;4751703;30;20159;-77
2022/06/12 00:10:29;;;;;;;8.05;2.60;;;;;;;13.61;68.98;102213.47;4764329;30;20047;-76
2022/06/12 00:12:55;;;;;;;9.13;2.53;;;;;;;13.59;68.27;102220.59;4751552;30;20376;-77
2022/06/12 00:15:24;;;;;;;7.03;2.40;;;;;;;13.53;67.59;102226.88;4751960;30;20035;-77
2022/06/12 00:17:51;;;;;;;15.50;3.08;;;;;;;13.46;70.19;102223.41;4751859;30;20050;-77
2022/06/12 00:20:18;;;;;;;10.40;2.88;;;;;;;13.39;70.95;102223.50;4785791;30;20055;-77
2022/06/12 00:22:44;;;;;;;9.80;3.13;;;;;;;13.34;69.61;102221.75;4758083;30;20063;-77
2022/06/12 00:25:14;;;;;;;12.60;3.30;;;;;;;13.27;71.06;102213.88;4763935;30;20032;-77
2022/06/12 00:27:40;;;;;;;8.98;2.60;;;;;;;13.23;70.74;102215.66;4767674;30;20721;-77
2022/06/12 00:30:08;;;;;;;8.63;2.88;;;;;;;13.20;69.56;102221.00;4771415;30;20302;-77
2022/06/12 00:32:35;;;;;;;9.93;3.00;;;;;;;13.17;69.01;102220.16;4769498;30;20035;-77
2022/06/12 00:35:01;;;;;;;8.80;2.60;;;;;;;13.13;70.33;102214.00;4753873;30;20059;-77
2022/06/12 00:37:27;;;;;;;11.25;3.00;;;;;;;13.09;69.46;102214.94;4763088;30;20048;-77
2022/06/12 00:39:55;;;;;;;11.95;3.20;;;;;;;13.05;70.49;102214.06;4737718;30;20066;-77
2022/06/12 00:42:28;;;;;;;8.55;2.72;;;;;;;13.04;70.31;102212.31;4767770;30;20078;-77
2022/06/12 00:44:56;;;;;;;9.48;2.90;;;;;;;13.01;70.94;102222.13;4767560;30;20101;-77
2022/06/12 00:47:23;;;;;;;9.63;2.78;;;;;;;12.99;70.22;102222.13;4749410;30;20060;-77
2022/06/12 00:50:08;;;;;;;12.93;2.75;;;;;;;12.99;70.70;102223.91;4767509;30;20455;-77
2022/06/12 00:52:42;;;;;;;6.70;2.80;;;;;;;12.95;71.27;102220.38;4767618;30;20048;-77
2022/06/12 00:55:32;;;;;;;12.15;2.97;;;;;;;12.85;72.24;102219.56;4785439;29;20062;-77
2022/06/12 00:58:15;;;;;;;6.63;2.38;;;;;;;12.85;69.96;102227.56;4759991;30;20052;-77
2022/06/12 01:00:41;;;;;;;13.73;2.63;;;;;;;12.79;72.75;102224.09;4755038;30;20056;-77
2022/06/12 01:03:08;;;;;;;7.43;2.83;;;;;;;12.74;71.19;102226.78;4752771;30;20043;-77
2022/06/12 01:08:20;;;;;;;9.98;3.50;;;;;;;12.65;72.62;102224.19;4779503;29;20055;-77
2022/06/12 01:10:48;;;;;;;10.40;3.08;;;;;;;12.65;72.37;102224.19;4773081;30;20071;-77
2022/06/12 01:13:23;;;;;;;11.63;3.42;;;;;;;12.61;73.19;102222.44;4788862;29;20059;-77
2022/06/12 01:15:52;;;;;;;6.65;2.60;;;;;;;12.60;73.56;102220.69;4743314;30;20550;-77
2022/06/12 01:18:22;;;;;;;12.25;3.00;;;;;;;12.59;72.66;102225.13;4754695;30;20078;-77
2022/06/12 01:21:10;;;;;;;9.98;3.10;;;;;;;12.61;72.25;102215.38;4754974;30;20134;-77
2022/06/12 01:23:57;;;;;;;8.13;2.88;;;;;;;12.56;72.78;102218.94;4767227;29;20409;-77
2022/06/12 01:27:00;;;;;;;9.85;3.20;;;;;;;12.50;73.68;102222.53;4771039;30;20064;-77
2022/06/12 01:29:43;;;;;;;9.05;3.50;;;;;;;12.41;73.51;102219.94;4766626;30;20056;-77
2022/06/12 01:32:15;;;;;;;13.73;3.47;;;;;;;12.38;73.35;102219.97;4770926;30;20471;-77
2022/06/12 01:34:52;;;;;;;8.63;3.40;;;;;;;12.33;73.70;102216.47;4754782;30;20124;-77
2022/06/12 01:38:05;;;;;;;10.10;3.25;;;;;;;12.34;72.23;102218.22;4774261;30;20401;-77
2022/06/12 01:40:38;;;;;;;12.05;2.97;;;;;;;12.28;74.52;102211.19;4749445;30;20389;-77
2022/06/12 01:43:36;;;;;;;13.23;3.58;;;;;;;12.24;74.94;102213.00;4769182;30;20096;-77
2022/06/12 01:46:40;;;;;;;12.25;3.40;;;;;;;12.17;72.78;102210.41;4774447;29;20063;-77
2022/06/12 01:49:16;;;;;;;12.63;3.55;;;;;;;12.07;75.33;102211.31;4745966;30;20056;-77
2022/06/12 01:51:59;;;;;;;9.75;3.33;;;;;;;12.06;75.49;102205.13;4754074;30;20090;-77
2022/06/12 01:54:56;;;;;;;11.07;3.33;;;;;;;12.06;74.71;102205.13;4763497;30;20113;-77
2022/06/12 01:57:56;;;;;;;11.88;3.38;;;;;;;12.04;75.22;102213.13;4765681;29;20078;-77
2022/06/12 02:00:23;;;;;;;11.27;2.88;;;;;;;11.99;74.73;102212.28;4788086;30;20434;-77
2022/06/12 02:02:55;;;;;;;11.88;3.20;;;;;;;11.95;75.32;102210.53;4771669;30;20043;-78
2022/06/12 02:05:37;;;;;;;17.65;4.45;;;;;;;11.93;75.82;102217.59;4774874;29;20056;-78
2022/06/12 02:08:20;;;;;;;11.88;3.17;;;;;;;11.90;75.61;102212.31;4760331;30;20372;-77
2022/06/12 02:10:53;;;;;;;12.82;3.58;;;;;;;11.88;76.23;102210.56;4763423;30;20105;-77
2022/06/12 02:13:34;;;;;;;12.23;3.30;;;;;;;11.87;75.86;102206.13;4748651;30;20067;-78
2022/06/12 02:16:08;;;;;;;7.47;2.90;;;;;;;11.83;74.89;102205.25;4757342;30;20051;-77
2022/06/12 02:18:50;;;;;;;10.32;3.10;;;;;;;11.77;76.22;102211.47;4753671;30;20044;-78
2022/06/12 02:21:43;;;;;;;11.27;3.60;;;;;;;11.77;76.58;102218.53;4759970;30;20113;-77
2022/06/12 02:24:18;;;;;;;10.95;3.15;;;;;;;11.67;75.54;102209.75;4769600;30;20052;-78
2022/06/12 02:26:57;;;;;;;15.20;3.30;;;;;;;11.63;77.36;102205.34;4753427;30;20397;-78
2022/06/12 02:29:26;;;;;;;11.63;2.92;;;;;;;11.60;77.52;102208.00;4776474;30;20496;-77
2022/06/12 02:31:55;;;;;;;16.63;4.18;;;;;;;11.57;76.95;102202.69;4758608;30;20116;-78
2022/06/12 02:34:25;;;;;;;10.38;3.55;;;;;;;11.51;76.90;102216.00;4787391;29;20065;-78
2022/06/12 02:36:57;;;;;;;10.88;3.47;;;;;;;11.54;76.54;102210.69;4759824;30;20217;-77
2022/06/12 02:39:27;;;;;;;16.25;3.70;;;;;;;11.57;79.01;102203.59;4765924;30;20113;-78
2022/06/12 02:41:58;;;;;;;12.27;3.42;;;;;;;11.60;77.39;102203.59;4780679;29;20074;-78
2022/06/12 02:44:45;;;;;;;11.75;3.70;;;;;;;11.66;78.24;102200.00;4751088;30;20450;-77
2022/06/12 02:47:18;;;;;;;15.85;3.63;;;;;;;11.67;78.68;102192.94;4761945;30;20458;-77
2022/06/12 02:49:47;;;;;;;10.45;3.80;;;;;;;11.68;79.23;102192.06;4765320;30;20077;-78
2022/06/12 02:52:15;;;;;;;14.52;3.70;;;;;;;11.72;78.50;102204.41;4769251;30;20056;-78
2022/06/12 02:55:02;;;;;;;13.52;4.15;;;;;;;11.73;77.64;102198.22;4773981;30;20138;-78
2022/06/12 02:57:49;;;;;;;9.50;3.03;;;;;;;11.73;77.30;102191.13;4770626;29;20111;-78
2022/06/12 03:00:31;;;;;;;10.90;2.90;;;;;;;11.71;77.54;102189.38;4787197;30;20051;-78
2022/06/12 03:03:15;;;;;;;13.50;3.50;;;;;;;11.67;76.19;102196.50;4752091;30;20054;-78
2022/06/12 03:05:47;;;;;;;13.30;3.70;;;;;;;11.67;78.38;102196.50;4764513;30;20142;-78
2022/06/12 03:08:15;;;;;;;;;;;;;;;11.78;75.55;102193.78;4752151;30;20058;-78
2022/06/12 03:10:56;;;;;;;9.52;3.55;;;;;;;11.70;77.51;102193.81;4762594;30;19921;-78
2022/06/12 03:13:25;;;;;;;10.25;3.13;;;;;;;11.69;77.78;102199.13;4769068;30;20142;-78
2022/06/12 03:15:50;;;;;;;14.20;3.55;;;;;;;11.69;78.08;102199.13;4752788;30;20086;-78
2022/06/12 03:18:24;;;;;;;11.32;3.47;;;;;;;11.68;78.15;102200.91;4771319;30;20078;-78
2022/06/12 03:21:11;;;;;;;14.35;3.72;;;;;;;11.69;76.94;102207.94;4754801;30;20051;-78
2022/06/12 03:23:59;;;;;;;13.98;3.67;;;;;;;11.70;78.23;102209.75;4754034;30;20059;-79
2022/06/12 03:26:31;;;;;;;14.82;3.65;;;;;;;11.69;78.49;102207.94;4752574;30;20075;-79
2022/06/12 03:29:07;;;;;;;13.02;3.60;;;;;;;11.68;77.85;102206.19;4752721;30;20505;-79
2022/06/12 03:31:48;;;;;;;12.35;3.63;;;;;;;11.70;77.80;102203.56;4765015;30;20057;-78
2022/06/12 03:34:32;;;;;;;11.98;3.22;;;;;;;11.73;78.29;102207.06;4757911;30;20052;-78
2022/06/12 03:37:09;;;;;;;11.82;3.78;;;;;;;11.74;78.03;102207.94;4768361;30;20106;-78
2022/06/12 03:39:34;;;;;;;14.30;3.90;;;;;;;11.74;79.51;102216.78;4761337;30;20051;-78
2022/06/12 03:42:11;;;;;;;12.90;3.95;;;;;;;11.74;78.91;102215.91;4768740;30;20058;-78
2022/06/12 03:44:50;;;;;;;11.23;4.07;;;;;;;11.75;78.92;102209.72;4752577;30;20052;-78
2022/06/12 03:47:29;;;;;;;15.75;3.78;;;;;;;11.75;79.48;102204.41;4755660;30;20043;-78
2022/06/12 03:50:01;;;;;;;17.45;4.78;;;;;;;11.77;80.49;102205.25;4768468;30;20059;-78
2022/06/12 03:52:36;;;;;;;12.32;3.90;;;;;;;11.78;79.56;102215.00;4752360;30;20067;-79
2022/06/12 03:55:17;;;;;;;12.07;4.05;;;;;;;11.80;80.25;102203.50;4752596;30;20048;-78
2022/06/12 03:57:53;;;;;;;14.13;3.58;;;;;;;11.86;78.90;102199.91;4773280;29;20052;-78
2022/06/12 04:00:35;;;;;;;15.73;4.43;;;;;;;11.87;79.01;102208.78;4756036;30;20059;-78
2022/06/12 04:03:29;;;;;;;15.90;3.55;;;;;;;11.89;78.32;102207.00;4756712;30;20048;-78
2022/06/12 04:05:59;;;;;;;13.27;3.80;;;;;;;11.89;79.22;102207.00;4771551;29;20126;-78
2022/06/12 04:08:30;;;;;;;14.60;3.88;;;;;;;11.90;79.03;102211.44;4777852;30;20052;-78
2022/06/12 04:10:57;;;;;;;13.13;3.70;;;;;;;11.92;78.59;102205.22;4752211;30;20055;-78
2022/06/12 04:13:23;;;;;;;18.70;3.83;;;;;;;11.96;79.14;102216.72;4758167;30;20050;-78
2022/06/12 04:15:55;;;;;;;19.10;4.18;;;;;;;12.01;78.74;102220.22;4751926;30;20063;-78
2022/06/12 04:18:23;;;;;;;14.65;4.35;;;;;;;12.02;78.68;102212.25;4752152;30;20047;-78
2022/06/12 04:20:49;;;;;;;11.02;3.90;;;;;;;12.03;79.20;102214.00;4755316;30;20056;-78
2022/06/12 04:23:30;;;;;;;17.45;4.28;;;;;;;12.08;78.31;102213.09;4765939;30;20050;-81
2022/06/12 04:26:38;;;;;;;15.77;3.93;;;;;;;12.14;77.37;102216.63;4777664;30;20158;-78
2022/06/12 04:29:19;;;;;;;13.52;4.13;;;;;;;12.13;78.29;102216.59;4733367;30;20058;-78
2022/06/12 04:31:47;;;;;;;13.07;3.88;;;;;;;12.18;78.57;102217.47;4769645;30;20123;-78
2022/06/12 04:34:13;;;;;;;12.15;3.95;;;;;;;12.21;78.29;102220.09;4778807;29;20032;-78
2022/06/12 04:36:40;;;;;;;18.10;4.05;;;;;;;12.23;78.49;102215.66;4751739;30;20481;-78
2022/06/12 04:39:06;;;;;;;15.20;4.70;;;;;;;12.24;78.72;102225.41;4753981;30;20044;-78
2022/06/12 04:41:35;;;;;;;14.07;3.78;;;;;;;12.27;78.84;102228.91;4751641;30;20473;-78
2022/06/12 04:44:03;;;;;;;13.40;5.05;;;;;;;12.27;78.47;102226.25;4767864;30;20034;-79
2022/06/12 04:46:29;;;;;;;12.23;3.70;;;;;;;12.30;78.39;102235.09;4754476;30;20059;-78
2022/06/12 04:48:57;;;;;;;22.60;4.03;;;;;;;12.34;78.67;102231.50;4769874;30;20059;-78
2022/06/12 04:51:22;;;;;;;12.70;4.30;;;;;;;12.36;79.25;102221.75;4769590;30;20078;-78
2022/06/12 04:53:48;;;;;;;15.98;4.65;;;;;;;12.44;78.71;102230.56;4754708;30;20091;-78
2022/06/12 04:56:17;;;;;;;14.95;4.88;;;;;;;12.48;78.58;102219.88;4767653;30;20109;-78
2022/06/12 04:58:42;;;;;;;15.45;3.97;;;;;;;12.58;78.38;102222.47;4763318;30;20527;-79
2022/06/12 05:01:08;;;;;;;12.73;4.38;;;;;;;12.66;78.36;102224.19;4752049;30;20043;-79
2022/06/12 05:03:34;;;;;;;15.02;4.20;;;;;;;12.73;78.63;102221.47;4761699;30;20120;-79
2022/06/12 05:06:01;;;;;;;12.25;4.50;;;;;;;12.78;77.64;102219.66;4741957;30;20120;-79
2022/06/12 05:08:27;;;;;;;16.60;4.15;;;;;;;12.86;77.37;102221.34;4754424;29;20424;-79
2022/06/12 05:10:53;;;;;;;16.17;4.22;;;;;;;12.93;77.03;102214.19;4767671;30;20043;-80
2022/06/12 05:13:19;;;;;;;13.05;4.38;;;;;;;13.02;77.08;102218.53;4743558;30;20657;-79
2022/06/12 05:15:46;;;;;;;14.07;4.13;;;;;;;13.08;77.52;102216.72;4743238;30;20066;-79
2022/06/12 05:18:15;;;;;;;19.45;5.07;;;;;;;13.16;77.09;102224.59;4756474;30;20057;-79
2022/06/12 05:20:42;;;;;;;18.20;4.53;;;;;;;13.22;76.42;102221.00;4774980;30;20080;-79
2022/06/12 05:23:08;;;;;;;20.38;5.30;;;;;;;13.29;76.82;102220.06;4780164;30;20069;-79
2022/06/12 05:25:35;;;;;;;17.45;4.70;;;;;;;13.37;75.83;102222.63;4767522;30;20465;-79
2022/06/12 05:28:03;;;;;;;17.80;4.50;;;;;;;13.43;76.22;102219.91;4767291;30;20131;-78
2022/06/12 05:30:31;;;;;;;21.00;5.70;;;;;;;13.48;75.62;102224.28;4751738;30;20060;-79
2022/06/12 05:32:58;;;;;;;22.60;4.90;;;;;;;13.56;75.30;102224.19;4751127;30;20105;-79
2022/06/12 05:35:23;;;;;;;14.90;4.75;;;;;;;13.64;75.84;102216.97;4751155;30;20043;-79
2022/06/12 05:37:51;;;;;;;17.50;4.40;;;;;;;13.72;75.01;102220.44;4759478;29;20054;-79
2022/06/12 05:40:21;;;;;;;20.05;5.03;;;;;;;13.80;75.54;102216.78;4783826;29;20090;-79
2022/06/12 05:42:48;;;;;;;17.70;5.20;;;;;;;13.91;75.72;102220.19;4761745;30;20051;-78
2022/06/12 05:45:16;;;;;;;15.38;4.88;;;;;;;13.94;75.23;102223.66;4775840;30;20124;-80
2022/06/12 05:48:13;;;;;;;22.80;4.88;;;;;;;14.05;75.63;102223.53;4771382;30;20113;-80
2022/06/12 05:50:48;;;;;;;16.25;5.30;;;;;;;14.11;75.38;102227.88;4766190;30;20059;-81
2022/06/12 05:53:17;;;;;;;19.48;5.00;;;;;;;14.20;75.74;102223.31;4754472;30;20423;-80
2022/06/12 05:55:44;;;;;;;19.63;5.13;;;;;;;14.27;74.57;102228.53;4783070;29;20036;-81
2022/06/12 05:58:10;;;;;;;19.83;4.90;;;;;;;14.30;75.15;102221.38;4754336;30;20036;-80
2022/06/12 06:00:35;;;;;;;18.00;5.00;;;;;;;14.43;75.48;102227.41;4751910;30;20078;-80
2022/06/12 06:03:01;;;;;;;20.60;4.93;;;;;;;14.54;74.40;102225.50;4776504;29;20087;-80
2022/06/12 06:05:27;;;;;;;20.58;5.35;;;;;;;14.59;73.75;102223.63;4776801;30;20449;-80
2022/06/12 06:07:53;;;;;;;14.10;4.88;;;;;;;14.68;74.36;102227.91;4758318;30;20051;-79
2022/06/12 06:10:24;;;;;;;18.08;5.13;;;;;;;14.79;74.84;102231.28;4762209;30;20137;-78
2022/06/12 06:12:50;;;;;;;;;;;;;;;14.86;74.66;102229.41;4754326;30;20433;-80
2022/06/12 06:15:16;;;;;;;22.42;4.65;;;;;;;14.94;74.16;102232.81;4764330;30;20027;-80
2022/06/12 06:17:45;;;;;;;22.70;5.72;;;;;;;15.03;74.76;102237.97;4782549;29;20115;-80
2022/06/12 06:20:17;;;;;;;20.63;5.07;;;;;;;15.13;75.18;102238.66;4742693;30;20056;-80
2022/06/12 06:22:42;;;;;;;22.20;5.35;;;;;;;15.26;74.86;102236.66;4763613;30;20120;-80
2022/06/12 06:25:09;;;;;;;21.08;5.03;;;;;;;15.34;74.42;102234.72;4769027;30;20048;-78
2022/06/12 06:27:35;;;;;;;24.13;6.28;;;;;;;15.44;74.76;102235.44;4761743;30;20051;-78
2022/06/12 06:30:01;;;;;;;27.27;5.63;;;;;;;15.56;73.91;102239.66;4745547;30;20215;-78
2022/06/12 06:32:26;;;;;;;21.88;5.60;;;;;;;15.74;74.82;102236.63;4760104;30;20100;-78
2022/06/12 06:34:52;;;;;;;28.70;5.28;;;;;;;15.94;73.34;102243.31;4775881;30;20047;-78
2022/06/12 06:37:18;;;;;;;20.50;5.80;;;;;;;15.96;72.43;102239.69;4755969;30;20039;-79
2022/06/12 06:39:43;;;;;;;23.35;5.65;;;;;;;15.94;72.59;102246.00;4761689;30;20446;-78
2022/06/12 06:42:10;;;;;;;25.50;6.80;;;;;;;15.88;71.87;102244.34;4766000;30;20051;-78
2022/06/12 06:47:26;;;;;;;23.45;6.93;;;;;;;15.81;73.36;102248.06;4759663;30;20423;-78
2022/06/12 06:49:51;;;;;;;20.85;5.63;;;;;;;15.82;72.62;102252.47;4752216;30;20152;-77
2022/06/12 06:52:17;;;;;;;22.95;5.55;;;;;;;15.88;71.88;102255.03;4748465;30;20377;-77
2022/06/12 06:54:43;;;;;;;20.58;5.85;;;;;;;15.98;72.93;102253.91;4769482;30;20066;-79
2022/06/12 06:57:09;;;;;;;18.65;5.10;;;;;;;16.20;72.49;102261.47;4753528;30;20424;-77
2022/06/12 06:59:35;;;;;;;21.73;5.90;;;;;;;16.32;72.12;102259.38;4762381;30;20044;-79
2022/06/12 07:02:01;;;;;;;23.48;6.20;;;;;;;16.31;70.99;102251.38;4768135;30;20060;-79
2022/06/12 07:04:26;;;;;;;28.60;6.68;;;;;;;16.26;71.76;102258.63;4738597;30;20062;-79
2022/06/12 07:06:52;;;;;;;22.75;5.97;;;;;;;16.25;72.24;102255.09;4769534;30;20051;-80
2022/06/12 07:09:18;;;;;;;25.52;6.55;;;;;;;16.39;72.02;102245.84;4765157;30;20432;-79
2022/06/12 07:11:43;;;;;;;20.45;5.88;;;;;;;16.48;70.94;102259.88;4769243;30;20109;-79
2022/06/12 07:14:09;;;;;;;20.60;5.72;;;;;;;16.54;70.46;102251.72;4735710;30;20060;-80
2022/06/12 07:16:36;;;;;;;25.48;6.47;;;;;;;16.71;70.79;102256.63;4765108;30;20068;-79
2022/06/12 07:19:03;;;;;;;23.83;5.50;;;;;;;16.91;70.97;102256.19;4753032;30;20048;-77
2022/06/12 07:21:28;;;;;;;27.17;6.22;;;;;;;17.16;69.59;102255.53;4736449;30;20060;-77
2022/06/12 07:23:54;;;;;;;20.70;5.03;;;;;;;17.36;70.53;102252.31;4780598;30;20050;-78
2022/06/12 07:26:24;;;;;;;26.52;6.20;;;;;;;17.57;69.47;102254.38;4764257;30;20067;-77
2022/06/12 07:28:50;;;;;;;18.58;5.40;;;;;;;17.52;68.70;102250.97;4769066;30;20510;-77
2022/06/12 07:31:16;;;;;;;18.60;5.35;;;;;;;17.62;68.48;102251.56;4752777;30;20504;-77
2022/06/12 07:33:42;;;;;;;23.20;6.80;;;;;;;17.56;68.36;102249.09;4771747;30;20039;-77
2022/06/12 07:36:14;;;;;;;23.05;5.07;;;;;;;17.57;68.20;102257.06;4747315;30;20051;-79
2022/06/12 07:38:47;;;;;;;26.02;5.47;;;;;;;17.69;67.66;102263.88;4738513;30;20059;-79
2022/06/12 07:41:14;;;;;;;25.05;5.75;;;;;;;17.76;66.93;102257.41;4768742;30;20050;-79
2022/06/12 07:43:42;;;;;;;21.25;5.32;;;;;;;17.83;66.60;102261.69;4738987;30;20497;-79
2022/06/12 07:46:20;;;;;;;24.58;4.88;;;;;;;17.85;65.19;102264.31;4737586;30;20043;-77
2022/06/12 07:48:47;;;;;;;21.98;5.15;;;;;;;17.78;64.22;102260.94;4738810;30;20059;-78
2022/06/12 07:51:17;;;;;;;18.52;5.13;;;;;;;17.80;65.14;102263.56;4759129;30;20054;-77
2022/06/12 07:53:44;;;;;;;20.02;5.18;;;;;;;17.90;65.21;102257.03;4771443;30;20051;-77
2022/06/12 07:56:11;;;;;;;22.98;5.13;;;;;;;18.05;65.28;102261.03;4768418;30;20086;-77
2022/06/12 07:58:37;;;;;;;25.33;4.72;;;;;;;18.21;64.65;102265.00;4737781;30;20131;-78
2022/06/12 08:01:06;;;;;;;20.48;4.88;;;;;;;18.32;62.72;102261.97;4752192;30;20043;-79
2022/06/12 08:03:32;;;;;;;21.52;4.80;;;;;;;18.44;63.30;102260.72;4767855;30;20136;-79
2022/06/12 08:05:58;;;;;;;18.27;4.72;;;;;;;18.45;63.24;102263.38;4751764;30;20032;-79
2022/06/12 08:08:25;;;;;;;19.00;4.55;;;;;;;18.57;63.24;102256.72;4723009;30;20127;-79
2022/06/12 08:10:50;;;;;;;27.05;5.35;;;;;;;18.54;61.23;102262.16;4749863;30;20051;-77
2022/06/12 08:13:17;;;;;;;24.48;5.28;;;;;;;18.51;61.06;102264.09;4752125;30;20063;-77
2022/06/12 08:15:44;;;;;;;21.00;5.20;;;;;;;18.41;61.97;102259.00;4746395;30;20108;-77
2022/06/12 08:18:11;;;;;;;23.27;5.30;;;;;;;18.39;62.78;102254.63;4767590;30;20105;-77
2022/06/12 08:20:40;;;;;;;20.10;5.60;;;;;;;18.53;62.97;102256.88;4751758;30;20043;-77
2022/06/12 08:23:26;;;;;;;16.58;4.72;;;;;;;18.69;62.51;102253.66;4764183;30;20107;-77
2022/06/12 08:25:55;;;;;;;23.98;6.03;;;;;;;18.83;62.89;102244.28;4775894;30;20063;-76
2022/06/12 08:28:21;;;;;;;17.33;5.13;;;;;;;18.96;62.15;102250.09;4772867;30;20130;-77
2022/06/12 08:30:47;;;;;;;24.75;5.55;;;;;;;19.00;62.07;102249.94;4748093;30;20419;-77
2022/06/12 08:33:12;;;;;;;18.27;4.60;;;;;;;19.13;61.52;102253.94;4751688;30;20059;-76
2022/06/12 08:35:39;;;;;;;19.42;5.55;;;;;;;19.19;61.73;102252.84;4751760;30;20126;-77
2022/06/12 08:38:05;;;;;;;18.00;5.35;;;;;;;19.21;61.21;102256.34;4751647;30;20123;-76
2022/06/12 08:40:35;;;;;;;23.92;5.40;;;;;;;19.21;61.30;102250.97;4754749;30;20150;-77
2022/06/12 08:43:07;;;;;;;20.38;4.88;;;;;;;19.34;61.53;102243.38;4769184;30;20591;-77
2022/06/12 08:45:42;;;;;;;19.00;5.15;;;;;;;19.36;60.37;102252.22;4754303;30;20056;-77
2022/06/12 08:48:37;;;;;;;19.70;4.55;;;;;;;19.44;59.62;102247.47;4756364;30;20478;-77
2022/06/12 08:51:51;;;;;;;16.73;4.65;;;;;;;19.49;59.29;102244.63;4755437;30;20051;-77
2022/06/12 08:54:23;;;;;;;18.92;4.82;;;;;;;19.41;59.43;102236.84;4747407;30;20125;-78
2022/06/12 08:56:54;;;;;;;20.42;4.45;;;;;;;19.39;59.15;102238.72;4778161;29;20047;-77
2022/06/12 08:59:42;;;;;;;15.18;4.10;;;;;;;19.40;58.63;102232.38;4781295;29;20060;-77
2022/06/12 09:02:21;;;;;;;18.50;4.47;;;;;;;19.44;58.43;102234.03;4779635;30;20059;-77
2022/06/12 09:04:56;;;;;;;17.00;3.92;;;;;;;19.59;57.40;102229.91;4742612;30;20044;-78
2022/06/12 09:07:38;;;;;;;15.55;3.90;;;;;;;19.80;58.00;102222.84;4763595;30;20060;-77
2022/06/12 09:10:12;;;;;;;19.65;4.47;;;;;;;19.98;56.49;102232.03;4759248;30;20404;-77
2022/06/12 09:13:16;;;;;;;14.55;4.20;;;;;;;20.21;56.33;102231.13;4769049;30;20051;-78
2022/06/12 09:15:54;;;;;;;14.48;4.25;;;;;;;20.36;54.33;102230.50;4722994;30;20067;-77
2022/06/12 09:18:32;;;;;;;21.02;4.63;;;;;;;20.38;53.00;102230.44;4765276;30;20371;-78
2022/06/12 09:20:57;;;;;;;13.30;3.92;;;;;;;20.25;52.21;102235.44;4775890;30;20055;-79
2022/06/12 09:23:52;;;;;;;16.77;4.03;;;;;;;20.01;53.05;102231.91;4754968;30;20153;-78
2022/06/12 09:26:30;;;;;;;11.68;3.63;;;;;;;20.04;53.45;102228.22;4729910;30;20058;-78
2022/06/12 09:29:15;;;;;;;19.65;4.15;;;;;;;20.08;53.93;102232.53;4757022;30;20141;-78
2022/06/12 09:31:51;;;;;;;14.68;3.35;;;;;;;20.17;52.54;102232.16;4756211;30;20075;-79
2022/06/12 09:34:40;;;;;;;12.32;3.33;;;;;;;20.22;52.21;102229.31;4766127;30;20054;-78
2022/06/12 09:40:04;;;;;;;12.63;3.15;;;;;;;20.36;52.61;102233.19;4770709;30;20051;-78
2022/06/12 09:43:09;;;;;;;15.35;3.22;;;;;;;20.46;50.21;102230.13;4772208;30;20043;-78
2022/06/12 09:45:37;;;;;;;15.88;3.80;;;;;;;20.26;50.89;102225.56;4754901;30;20070;-79
2022/06/12 09:48:36;;;;;;;13.13;3.60;;;;;;;20.33;51.50;102233.31;4759194;30;20101;-78
2022/06/12 09:51:57;;;;;;;15.02;3.70;;;;;;;20.52;51.92;102233.41;4775945;30;20130;-78
2022/06/12 09:54:43;;;;;;;19.10;4.05;;;;;;;20.78;50.91;102226.09;4709566;30;20115;-78
2022/06/12 09:57:27;;;;;;;14.30;3.67;;;;;;;20.90;51.36;102222.03;4734382;30;20416;-77
2022/06/12 10:00:07;;;;;;;14.70;3.40;;;;;;;21.10;50.94;102216.63;4762140;30;20433;-78
2022/06/12 10:02:57;;;;;;;13.05;3.72;;;;;;;21.09;51.74;102220.25;4772558;30;20151;-78
2022/06/12 10:05:36;;;;;;;17.83;3.80;;;;;;;20.99;50.00;102222.50;4754339;30;20135;-77
2022/06/12 10:08:08;;;;;;;17.10;4.03;;;;;;;21.14;50.77;102211.97;4754033;30;20111;-78
2022/06/12 10:10:47;;;;;;;17.10;3.80;;;;;;;21.24;50.99;102207.91;4765496;29;20162;-77
2022/06/12 10:13:18;;;;;;;16.13;4.15;;;;;;;21.44;50.32;102212.47;4748715;30;20449;-78
2022/06/12 10:16:00;;;;;;;13.32;3.20;;;;;;;21.51;49.21;102215.72;4742227;30;20052;-78
2022/06/12 10:18:32;;;;;;;11.13;3.00;;;;;;;21.75;48.49;102205.63;4758920;30;20052;-78
2022/06/12 10:21:06;;;;;;;12.63;3.20;;;;;;;21.89;48.04;102212.13;4757279;30;20135;-79
2022/06/12 10:23:32;;;;;;;15.20;3.85;;;;;;;21.73;46.94;102212.91;4769671;30;20047;-79
2022/06/12 10:26:00;;;;;;;14.18;3.70;;;;;;;21.52;47.42;102204.03;4788061;29;20047;-78
2022/06/12 10:28:35;;;;;;;13.68;3.50;;;;;;;21.71;47.64;102209.41;4741048;30;20075;-78
2022/06/12 10:31:10;;;;;;;15.70;3.53;;;;;;;21.84;46.76;102219.56;4753823;30;20438;-78
2022/06/12 10:33:41;;;;;;;14.23;3.70;;;;;;;21.97;48.11;102213.56;4769670;30;20472;-78
2022/06/12 10:36:27;;;;;;;22.85;3.92;;;;;;;21.92;47.38;102207.53;4778298;29;20055;-78
2022/06/12 10:39:17;;;;;;;10.73;3.08;;;;;;;21.91;46.55;102209.34;4755490;30;20506;-78
2022/06/12 10:41:57;;;;;;;12.40;3.20;;;;;;;22.00;47.38;102205.31;4781922;30;20535;-78
2022/06/12 10:44:36;;;;;;;13.25;3.08;;;;;;;21.85;46.62;102204.25;4765070;29;20051;-78
2022/06/12 10:47:14;;;;;;;12.18;3.70;;;;;;;21.95;47.54;102191.19;4776494;30;20345;-78
2022/06/12 10:49:40;;;;;;;10.27;2.90;;;;;;;21.90;46.93;102200.38;4752780;30;20059;-78
2022/06/12 10:52:12;;;;;;;11.52;3.22;;;;;;;21.74;47.12;102201.19;4764956;30;20115;-78
2022/06/12 10:54:38;;;;;;;13.15;3.65;;;;;;;21.67;47.72;102195.22;4776468;30;20054;-78
2022/06/12 10:57:43;;;;;;;12.93;3.60;;;;;;;21.72;48.27;102190.47;4771193;30;20427;-78
2022/06/12 11:00:24;;;;;;;16.55;3.75;;;;;;;21.77;46.63;102190.25;4755822;30;20054;-78
2022/06/12 11:02:56;;;;;;;;;;;;;;;21.90;46.26;102189.56;4754199;30;20509;-78
2022/06/12 11:05:34;;;;;;;12.82;3.40;;;;;;;21.89;46.60;102186.97;4753425;30;19994;-79
2022/06/12 11:08:44;;;;;;;14.40;3.13;;;;;;;21.83;46.34;102187.25;4774533;30;20406;-77
2022/06/12 11:11:41;;;;;;;10.00;3.00;;;;;;;21.92;47.96;102191.34;4708579;30;20057;-78
2022/06/12 11:14:13;;;;;;;12.18;3.05;;;;;;;22.22;47.42;102189.88;4752246;30;20051;-78
2022/06/12 11:17:01;;;;;;;13.30;3.22;;;;;;;22.43;46.38;102190.63;4769390;30;20055;-78
2022/06/12 11:19:46;;;;;;;11.73;3.47;;;;;;;22.29;46.67;102185.06;4745725;30;20056;-78
2022/06/12 11:22:33;;;;;;;12.00;3.25;;;;;;;22.04;45.87;102180.84;4741556;30;20113;-78
2022/06/12 11:24:58;;;;;;;11.18;3.38;;;;;;;21.82;45.92;102188.22;4753047;30;20079;-78
2022/06/12 11:27:40;;;;;;;21.15;3.63;;;;;;;21.62;46.08;102183.78;4753202;30;20116;-78
2022/06/12 11:30:23;;;;;;;19.20;3.35;;;;;;;21.34;48.24;102194.91;4752921;30;20485;-78
2022/06/12 11:33:12;;;;;;;11.50;3.00;;;;;;;21.26;48.31;102190.75;4768858;30;20051;-78
2022/06/12 11:35:52;;;;;;;10.93;3.40;;;;;;;21.14;48.45;102185.03;4754976;30;20052;-78
2022/06/12 11:38:20;;;;;;;11.57;3.03;;;;;;;21.45;49.71;102184.56;4768176;30;20155;-78
2022/06/12 11:41:04;;;;;;;14.88;3.45;;;;;;;21.83;47.60;102181.84;4757857;30;20035;-78
2022/06/12 11:43:41;;;;;;;10.38;2.88;;;;;;;22.14;46.99;102185.78;4754818;30;20052;-78
2022/06/12 11:46:31;;;;;;;10.15;3.10;;;;;;;22.05;47.02;102174.47;4767322;30;20050;-79
2022/06/12 11:49:15;;;;;;;16.02;3.55;;;;;;;22.13;46.86;102163.31;4756341;30;20086;-78
2022/06/12 11:52:05;;;;;;;12.82;3.00;;;;;;;22.28;45.02;102170.69;4752601;30;20061;-80
2022/06/12 11:55:09;;;;;;;13.98;3.05;;;;;;;22.54;44.50;102166.66;4770124;30;20047;-79
2022/06/12 11:57:50;;;;;;;13.85;3.15;;;;;;;22.52;45.90;102159.59;4680743;30;20057;-77
2022/06/12 12:00:33;;;;;;;14.32;3.30;;;;;;;22.27;44.58;102162.66;4760875;30;20135;-78